createdAt,value
2023-02-24T00:02:01.208Z,12.17
2023-02-24T00:04:40.746Z,12.16
2023-02-24T00:07:08.108Z,12.10
2023-02-24T00:09:34.907Z,12.02
2023-02-24T00:12:11.516Z,11.98
2023-02-24T00:14:39.170Z,11.96
2023-02-24T00:17:08.319Z,12.02
2023-02-24T00:19:36.568Z,11.90
2023-02-24T00:22:04.071Z,11.94
2023-02-24T00:24:31.233Z,11.87
2023-02-24T00:27:02.778Z,11.86
2023-02-24T00:29:30.643Z,11.84
2023-02-24T00:31:59.329Z,11.89
2023-02-24T00:34:35.418Z,11.93
2023-02-24T00:37:02.896Z,11.92
2023-02-24T00:39:34.143Z,11.89
2023-02-24T00:42:06.990Z,11.83
2023-02-24T00:44:38.986Z,11.75
2023-02-24T00:47:06.889Z,11.70
2023-02-24T00:49:34.033Z,11.67
2023-02-24T00:52:00.622Z,11.71
2023-02-24T00:54:28.403Z,11.81
2023-02-24T00:56:55.857Z,11.76
2023-02-24T00:59:24.071Z,11.75
2023-02-24T01:01:51.120Z,11.76
2023-02-24T01:04:19.065Z,11.77
2023-02-24T01:06:47.452Z,11.78
2023-02-24T01:09:16.566Z,11.75
2023-02-24T01:12:03.316Z,11.73
2023-02-24T01:14:31.117Z,11.64
2023-02-24T01:16:58.197Z,11.64
2023-02-24T01:19:30.482Z,11.60
2023-02-24T01:22:04.150Z,11.52
2023-02-24T01:24:31.815Z,11.54
2023-02-24T01:26:59.274Z,11.62
2023-02-24T01:29:26.053Z,11.62
2023-02-24T01:31:57.869Z,11.54
2023-02-24T01:34:28.418Z,11.44
2023-02-24T01:36:57.456Z,11.37
2023-02-24T01:39:25.832Z,11.37
2023-02-24T01:41:53.128Z,11.38
2023-02-24T01:44:22.493Z,11.43
2023-02-24T01:46:50.920Z,11.50
2023-02-24T01:49:30.108Z,11.56
2023-02-24T01:51:59.106Z,11.58
2023-02-24T01:54:27.166Z,11.59
2023-02-24T01:56:54.643Z,11.58
2023-02-24T01:59:22.692Z,11.55
2023-02-24T02:01:53.344Z,11.54
2023-02-24T02:04:26.421Z,11.51
2023-02-24T02:06:53.744Z,11.54
2023-02-24T02:09:20.561Z,11.53
2023-02-24T02:11:50.917Z,11.49
2023-02-24T02:14:18.639Z,11.49
2023-02-24T02:16:49.272Z,11.49
2023-02-24T02:19:27.321Z,11.53
2023-02-24T02:21:56.741Z,11.48
2023-02-24T02:24:45.533Z,11.43
2023-02-24T02:27:21.137Z,11.34
2023-02-24T02:29:51.105Z,11.32
2023-02-24T02:32:40.733Z,11.33
2023-02-24T02:35:19.129Z,11.34
2023-02-24T02:37:59.308Z,11.38
2023-02-24T02:40:28.146Z,11.36
2023-02-24T02:43:05.129Z,11.36
2023-02-24T02:45:48.683Z,11.42
2023-02-24T02:48:28.333Z,11.36
2023-02-24T02:51:04.216Z,11.34
2023-02-24T02:53:37.531Z,11.34
2023-02-24T02:56:11.548Z,11.38
2023-02-24T02:58:42.164Z,11.37
2023-02-24T03:01:09.827Z,11.34
2023-02-24T03:03:45.849Z,11.32
2023-02-24T03:06:19.475Z,11.28
2023-02-24T03:08:55.709Z,11.24
2023-02-24T03:11:24.129Z,11.22
2023-02-24T03:13:53.983Z,11.24
2023-02-24T03:16:23.168Z,11.29
2023-02-24T03:19:04.741Z,11.31
2023-02-24T03:21:38.750Z,11.31
2023-02-24T03:24:06.680Z,11.36
2023-02-24T03:26:41.764Z,11.37
2023-02-24T03:29:24.059Z,11.41
2023-02-24T03:31:59.650Z,11.42
2023-02-24T03:34:28.800Z,11.38
2023-02-24T03:36:55.865Z,11.35
2023-02-24T03:39:23.435Z,11.33
2023-02-24T03:42:18.025Z,11.36
2023-02-24T03:44:45.521Z,11.33
2023-02-24T03:47:17.129Z,11.32
2023-02-24T03:49:43.866Z,11.29
2023-02-24T03:52:32.665Z,11.23
2023-02-24T03:55:17.102Z,11.18
2023-02-24T03:58:01.015Z,11.17
2023-02-24T04:00:39.321Z,11.20
2023-02-24T04:03:09.735Z,11.20
2023-02-24T04:05:47.377Z,11.17
2023-02-24T04:08:15.731Z,11.20
2023-02-24T04:10:54.645Z,11.19
2023-02-24T04:13:35.377Z,11.13
2023-02-24T04:16:27.905Z,11.11
2023-02-24T04:19:02.926Z,11.08
2023-02-24T04:21:32.345Z,11.06
2023-02-24T04:24:02.124Z,11.07
2023-02-24T04:26:29.398Z,11.09
2023-02-24T04:28:56.953Z,11.11
2023-02-24T04:31:25.678Z,11.14
2023-02-24T04:33:53.394Z,11.15
2023-02-24T04:36:28.365Z,11.17
2023-02-24T04:38:55.661Z,11.21
2023-02-24T04:41:23.061Z,11.20
2023-02-24T04:43:53.160Z,11.18
2023-02-24T04:46:20.047Z,11.21
2023-02-24T04:48:46.703Z,11.22
2023-02-24T04:51:13.857Z,11.22
2023-02-24T04:53:40.703Z,11.22
2023-02-24T04:56:09.216Z,11.26
2023-02-24T04:58:37.370Z,11.27
2023-02-24T05:01:11.587Z,11.22
2023-02-24T05:03:42.069Z,11.21
2023-02-24T05:06:13.954Z,11.20
2023-02-24T05:08:40.465Z,11.25
2023-02-24T05:11:07.217Z,11.31
2023-02-24T05:13:33.858Z,11.33
2023-02-24T05:16:05.840Z,11.34
2023-02-24T05:18:37.205Z,11.36
2023-02-24T05:21:26.561Z,11.40
2023-02-24T05:23:53.900Z,11.40
2023-02-24T05:26:21.579Z,11.37
2023-02-24T05:28:52.240Z,11.36
2023-02-24T05:31:29.401Z,11.35
2023-02-24T05:34:00.176Z,11.35
2023-02-24T05:36:29.459Z,11.39
2023-02-24T05:39:04.955Z,11.38
2023-02-24T05:41:36.088Z,11.37
2023-02-24T05:44:05.031Z,11.29
2023-02-24T05:46:32.777Z,11.30
2023-02-24T05:49:00.745Z,11.29
2023-02-24T05:51:35.216Z,11.29
2023-02-24T05:54:05.975Z,11.34
2023-02-24T05:56:33.846Z,11.34
2023-02-24T05:59:04.588Z,11.33
2023-02-24T06:01:32.623Z,11.32
2023-02-24T06:04:05.702Z,11.33
2023-02-24T06:06:41.921Z,11.33
2023-02-24T06:09:10.976Z,11.35
2023-02-24T06:11:38.546Z,11.35
2023-02-24T06:14:07.147Z,11.32
2023-02-24T06:16:35.763Z,11.28
2023-02-24T06:19:02.844Z,11.30
2023-02-24T06:21:30.040Z,11.30
2023-02-24T06:24:00.958Z,11.29
2023-02-24T06:26:33.700Z,11.26
2023-02-24T06:29:00.532Z,11.23
2023-02-24T06:31:30.079Z,11.23
2023-02-24T06:33:56.951Z,11.20
2023-02-24T06:36:23.576Z,11.19
2023-02-24T06:38:50.134Z,11.18
2023-02-24T06:41:16.726Z,11.17
2023-02-24T06:43:44.744Z,11.16
2023-02-24T06:46:15.531Z,11.18
2023-02-24T06:48:42.223Z,11.21
2023-02-24T06:51:11.041Z,11.08
2023-02-24T06:53:43.276Z,11.07
2023-02-24T06:56:19.788Z,11.16
2023-02-24T06:58:49.983Z,11.25
2023-02-24T07:01:18.945Z,11.27
2023-02-24T07:04:01.579Z,11.23
2023-02-24T07:06:29.445Z,11.24
2023-02-24T07:08:57.840Z,11.29
2023-02-24T07:11:24.972Z,11.35
2023-02-24T07:13:53.910Z,11.35
2023-02-24T07:16:25.266Z,11.38
2023-02-24T07:18:56.569Z,11.43
2023-02-24T07:21:24.220Z,11.38
2023-02-24T07:23:58.905Z,11.34
2023-02-24T07:26:26.744Z,11.28
2023-02-24T07:28:55.150Z,11.23
2023-02-24T07:31:24.424Z,11.26
2023-02-24T07:34:00.181Z,11.34
2023-02-24T07:36:31.406Z,11.43
2023-02-24T07:38:59.009Z,11.43
2023-02-24T07:41:26.478Z,11.49
2023-02-24T07:43:54.589Z,11.62
2023-02-24T07:46:25.490Z,11.79
2023-02-24T07:48:52.748Z,11.75
2023-02-24T07:51:22.054Z,11.81
2023-02-24T07:53:53.555Z,11.97
2023-02-24T07:56:27.108Z,12.05
2023-02-24T07:59:00.547Z,12.17
2023-02-24T08:01:32.968Z,12.18
2023-02-24T08:04:03.071Z,12.06
2023-02-24T08:06:48.313Z,12.07
2023-02-24T08:09:20.582Z,12.05
2023-02-24T08:11:54.913Z,12.18
2023-02-24T08:14:23.646Z,12.34
2023-02-24T08:16:52.799Z,12.44
2023-02-24T08:19:21.135Z,12.53
2023-02-24T08:21:56.689Z,12.70
2023-02-24T08:24:25.338Z,12.86
2023-02-24T08:27:08.736Z,12.95
2023-02-24T08:29:55.653Z,13.04
2023-02-24T08:32:25.290Z,13.03
2023-02-24T08:34:56.761Z,12.99
2023-02-24T08:37:25.319Z,12.93
2023-02-24T08:39:54.193Z,12.78
2023-02-24T08:42:29.632Z,12.90
2023-02-24T08:44:58.150Z,13.21
2023-02-24T08:47:31.987Z,13.32
2023-02-24T08:50:02.052Z,13.15
2023-02-24T08:52:30.204Z,13.29
2023-02-24T08:55:01.878Z,13.56
2023-02-24T08:57:28.619Z,13.84
2023-02-24T08:59:58.125Z,13.82
2023-02-24T09:02:28.250Z,13.68
2023-02-24T09:04:59.933Z,13.62
2023-02-24T09:07:28.229Z,13.63
2023-02-24T09:09:58.623Z,13.60
2023-02-24T09:12:26.246Z,13.73
2023-02-24T09:14:57.252Z,13.70
2023-02-24T09:17:41.081Z,13.86
2023-02-24T09:20:29.392Z,14.34
2023-02-24T09:23:07.489Z,14.72
2023-02-24T09:25:41.566Z,14.69
2023-02-24T09:28:09.944Z,14.08
2023-02-24T09:30:38.525Z,13.89
2023-02-24T09:33:06.557Z,13.94
2023-02-24T09:35:36.753Z,13.87
2023-02-24T09:38:07.324Z,13.98
2023-02-24T09:40:40.481Z,14.24
2023-02-24T09:43:17.611Z,14.98
2023-02-24T09:45:54.302Z,15.76
2023-02-24T09:48:43.691Z,16.43
2023-02-24T09:51:25.718Z,16.85
2023-02-24T09:53:54.849Z,16.80
2023-02-24T09:56:32.757Z,16.90
2023-02-24T09:59:11.602Z,17.04
2023-02-24T10:01:48.288Z,17.12
2023-02-24T10:04:21.064Z,16.97
2023-02-24T10:06:55.384Z,16.74
2023-02-24T10:09:34.588Z,16.46
2023-02-24T10:12:21.492Z,16.21
2023-02-24T10:15:00.294Z,15.90
2023-02-24T10:17:40.090Z,15.45
2023-02-24T10:20:13.992Z,15.32
2023-02-24T10:22:52.285Z,15.28
2023-02-24T10:25:21.308Z,15.15
2023-02-24T10:28:11.022Z,15.03
2023-02-24T10:30:47.233Z,14.99
2023-02-24T10:33:20.714Z,14.82
2023-02-24T10:35:47.358Z,14.67
2023-02-24T10:38:13.872Z,14.64
2023-02-24T10:40:46.870Z,14.87
2023-02-24T10:43:18.569Z,15.60
2023-02-24T10:45:46.512Z,15.63
2023-02-24T10:48:40.196Z,15.41
2023-02-24T10:51:19.975Z,15.28
2023-02-24T10:54:10.002Z,15.45
2023-02-24T10:56:44.867Z,15.58
2023-02-24T10:59:25.665Z,15.75
2023-02-24T11:01:59.258Z,15.91
2023-02-24T11:05:01.774Z,16.19
2023-02-24T11:07:53.883Z,16.71
2023-02-24T11:10:33.006Z,17.28
2023-02-24T11:13:19.572Z,17.08
2023-02-24T11:16:05.068Z,16.75
2023-02-24T11:18:32.207Z,16.38
2023-02-24T11:21:00.335Z,16.13
2023-02-24T11:23:35.058Z,15.97
2023-02-24T11:26:20.962Z,15.88
2023-02-24T11:29:06.671Z,15.86
2023-02-24T11:31:48.929Z,15.80
2023-02-24T11:34:30.942Z,15.71
2023-02-24T11:37:21.304Z,15.55
2023-02-24T11:39:59.249Z,15.51
2023-02-24T11:42:31.212Z,15.39
2023-02-24T11:45:01.538Z,15.28
2023-02-24T11:47:31.290Z,15.20
2023-02-24T11:49:58.077Z,15.31
2023-02-24T11:52:35.372Z,15.25
2023-02-24T11:55:03.868Z,15.22
2023-02-24T11:57:43.924Z,15.36
2023-02-24T12:00:24.771Z,15.51
2023-02-24T12:03:03.960Z,16.00
2023-02-24T12:05:36.959Z,16.30
2023-02-24T12:08:17.837Z,16.13
2023-02-24T12:10:48.678Z,15.90
2023-02-24T12:13:15.637Z,15.85
2023-02-24T12:15:48.781Z,16.43
2023-02-24T12:18:15.339Z,16.88
2023-02-24T12:20:55.319Z,17.28
2023-02-24T12:23:28.305Z,17.57
2023-02-24T12:26:13.750Z,17.71
2023-02-24T12:28:43.495Z,17.64
2023-02-24T12:31:19.662Z,17.47
2023-02-24T12:33:52.440Z,18.87
2023-02-24T12:36:20.887Z,19.56
2023-02-24T12:39:10.728Z,21.40
2023-02-24T12:42:00.023Z,22.55
2023-02-24T12:44:41.740Z,21.48
2023-02-24T12:47:08.261Z,20.42
2023-02-24T12:49:42.702Z,19.60
2023-02-24T12:52:18.986Z,19.25
2023-02-24T12:54:55.498Z,19.63
2023-02-24T12:57:39.413Z,19.40
2023-02-24T13:00:11.620Z,18.84
2023-02-24T13:02:42.359Z,18.36
2023-02-24T13:05:18.133Z,18.32
2023-02-24T13:08:34.131Z,18.56
2023-02-24T13:11:12.471Z,18.27
2023-02-24T13:13:49.329Z,18.03
2023-02-24T13:16:27.140Z,18.27
2023-02-24T13:19:03.924Z,18.42
2023-02-24T13:21:30.733Z,18.55
2023-02-24T13:24:02.832Z,18.35
2023-02-24T13:26:32.073Z,18.23
2023-02-24T13:29:00.155Z,18.12
2023-02-24T13:31:27.663Z,18.08
2023-02-24T13:33:54.526Z,17.98
2023-02-24T13:36:25.207Z,17.89
2023-02-24T13:38:52.141Z,17.91
2023-02-24T13:41:27.849Z,17.90
2023-02-24T13:43:58.953Z,17.74
2023-02-24T13:46:27.539Z,17.74
2023-02-24T13:48:59.766Z,17.84
2023-02-24T13:51:46.338Z,18.05
2023-02-24T13:54:32.363Z,18.05
2023-02-24T13:57:01.981Z,17.81
2023-02-24T13:59:32.319Z,17.62
2023-02-24T14:02:05.532Z,17.55
2023-02-24T14:04:33.983Z,17.39
2023-02-24T14:07:03.651Z,17.24
2023-02-24T14:09:43.348Z,17.10
2023-02-24T14:12:15.269Z,17.07
2023-02-24T14:14:43.591Z,16.87
2023-02-24T14:17:28.305Z,16.73
2023-02-24T14:20:15.726Z,16.83
2023-02-24T14:22:44.332Z,17.07
2023-02-24T14:25:11.970Z,17.05
2023-02-24T14:27:41.620Z,17.03
2023-02-24T14:30:21.843Z,16.93
2023-02-24T14:32:50.228Z,16.80
2023-02-24T14:35:23.755Z,16.73
2023-02-24T14:37:50.310Z,16.83
2023-02-24T14:40:17.361Z,17.08
2023-02-24T14:42:49.038Z,17.00
2023-02-24T14:45:17.491Z,16.80
2023-02-24T14:47:44.115Z,16.64
2023-02-24T14:50:23.447Z,16.40
2023-02-24T14:52:50.516Z,16.21
2023-02-24T14:55:19.287Z,15.97
2023-02-24T14:57:57.928Z,15.73
2023-02-24T15:00:27.095Z,15.60
2023-02-24T15:03:11.991Z,15.66
2023-02-24T15:05:44.918Z,15.74
2023-02-24T15:08:23.821Z,15.74
2023-02-24T15:10:51.558Z,15.81
2023-02-24T15:13:22.947Z,15.77
2023-02-24T15:15:49.788Z,15.85
2023-02-24T15:18:27.291Z,15.82
2023-02-24T15:21:05.271Z,15.55
2023-02-24T15:23:33.018Z,15.39
2023-02-24T15:25:59.902Z,15.23
2023-02-24T15:28:31.300Z,15.09
2023-02-24T15:31:04.612Z,15.04
2023-02-24T15:33:37.456Z,14.82
2023-02-24T15:36:06.786Z,14.64
2023-02-24T15:38:36.181Z,14.53
2023-02-24T15:41:03.981Z,14.51
2023-02-24T15:43:33.849Z,14.44
2023-02-24T15:46:00.646Z,14.36
2023-02-24T15:48:31.086Z,14.40
2023-02-24T15:51:02.930Z,14.34
2023-02-24T15:53:29.647Z,14.31
2023-02-24T15:55:56.255Z,14.16
2023-02-24T15:58:23.199Z,14.00
2023-02-24T16:00:52.424Z,13.99
2023-02-24T16:03:19.213Z,13.96
2023-02-24T16:05:46.016Z,13.83
2023-02-24T16:08:20.505Z,13.67
2023-02-24T16:10:47.498Z,13.56
2023-02-24T16:13:19.060Z,13.48
2023-02-24T16:15:46.455Z,13.40
2023-02-24T16:18:20.909Z,13.40
2023-02-24T16:20:54.379Z,13.35
2023-02-24T16:23:25.618Z,13.32
2023-02-24T16:25:57.339Z,13.39
2023-02-24T16:28:24.467Z,13.35
2023-02-24T16:30:51.408Z,13.25
2023-02-24T16:33:22.512Z,13.18
2023-02-24T16:35:53.176Z,13.13
2023-02-24T16:38:21.288Z,13.11
2023-02-24T16:40:48.697Z,13.05
2023-02-24T16:43:16.163Z,12.98
2023-02-24T16:45:43.873Z,12.90
2023-02-24T16:48:25.428Z,12.85
2023-02-24T16:50:52.084Z,12.87
2023-02-24T16:53:20.134Z,12.84
2023-02-24T16:55:47.380Z,12.71
2023-02-24T16:58:14.137Z,12.66
2023-02-24T17:00:42.648Z,12.68
2023-02-24T17:03:20.742Z,12.69
2023-02-24T17:05:47.674Z,12.67
2023-02-24T17:08:15.180Z,12.69
2023-02-24T17:10:43.684Z,12.60
2023-02-24T17:13:11.520Z,12.56
2023-02-24T17:15:38.839Z,12.58
2023-02-24T17:18:05.878Z,12.54
2023-02-24T17:20:33.016Z,12.55
2023-02-24T17:22:59.569Z,12.59
2023-02-24T17:25:27.425Z,12.65
2023-02-24T17:27:54.623Z,12.72
2023-02-24T17:30:22.757Z,12.70
2023-02-24T17:32:49.480Z,12.73
2023-02-24T17:35:16.558Z,12.74
2023-02-24T17:37:45.773Z,12.72
2023-02-24T17:40:13.026Z,12.74
2023-02-24T17:42:39.575Z,12.74
2023-02-24T17:45:06.434Z,12.71
2023-02-24T17:47:34.350Z,12.74
2023-02-24T17:50:01.286Z,12.74
2023-02-24T17:52:29.477Z,12.75
2023-02-24T17:54:56.329Z,12.61
2023-02-24T17:57:23.261Z,12.55
2023-02-24T17:59:49.903Z,12.53
2023-02-24T18:02:17.349Z,12.48
2023-02-24T18:04:44.247Z,12.53
2023-02-24T18:07:11.512Z,12.49
2023-02-24T18:09:38.420Z,12.34
2023-02-24T18:12:05.128Z,12.31
2023-02-24T18:14:31.785Z,12.29
2023-02-24T18:16:58.472Z,12.41
2023-02-24T18:19:25.261Z,12.28
2023-02-24T18:21:51.778Z,12.15
2023-02-24T18:24:20.705Z,12.23
2023-02-24T18:26:48.881Z,12.23
2023-02-24T18:29:15.598Z,12.19
2023-02-24T18:31:42.549Z,12.20
2023-02-24T18:34:09.350Z,12.10
2023-02-24T18:36:36.079Z,11.98
2023-02-24T18:39:02.800Z,11.87
2023-02-24T18:41:29.408Z,11.76
2023-02-24T18:43:57.065Z,11.65
2023-02-24T18:46:24.722Z,11.50
2023-02-24T18:48:51.705Z,11.48
2023-02-24T18:51:19.969Z,11.52
2023-02-24T18:53:46.839Z,11.54
2023-02-24T18:56:16.653Z,11.57
2023-02-24T18:58:44.091Z,11.64
2023-02-24T19:01:12.569Z,11.52
2023-02-24T19:03:39.630Z,11.45
2023-02-24T19:06:06.379Z,11.45
2023-02-24T19:08:36.339Z,11.43
2023-02-24T19:11:29.257Z,11.34
2023-02-24T19:13:55.944Z,11.29
2023-02-24T19:16:22.990Z,11.16
2023-02-24T19:18:50.664Z,11.03
2023-02-24T19:21:17.644Z,10.84
2023-02-24T19:23:44.349Z,10.70
2023-02-24T19:26:22.040Z,10.64
2023-02-24T19:28:51.072Z,10.63
2023-02-24T19:31:20.141Z,10.68
2023-02-24T19:33:51.377Z,10.68
2023-02-24T19:36:24.611Z,10.77
2023-02-24T19:38:52.333Z,10.68
2023-02-24T19:41:19.019Z,10.58
2023-02-24T19:43:46.184Z,10.58
2023-02-24T19:46:14.181Z,10.40
2023-02-24T19:48:41.389Z,10.28
2023-02-24T19:51:10.085Z,10.08
2023-02-24T19:53:36.806Z,9.90
2023-02-24T19:56:03.460Z,9.64
2023-02-24T19:58:30.229Z,9.49
2023-02-24T20:01:03.922Z,9.50
2023-02-24T20:03:30.480Z,9.54
2023-02-24T20:05:57.154Z,9.62
2023-02-24T20:08:24.587Z,9.66
2023-02-24T20:11:04.819Z,9.74
2023-02-24T20:13:31.663Z,9.74
2023-02-24T20:16:09.352Z,9.87
2023-02-24T20:18:36.288Z,9.82
2023-02-24T20:21:02.924Z,9.74
2023-02-24T20:23:29.967Z,9.75
2023-02-24T20:25:56.852Z,9.86
2023-02-24T20:28:24.285Z,10.01
2023-02-24T20:30:51.311Z,10.11
2023-02-24T20:33:18.596Z,10.16
2023-02-24T20:35:45.197Z,10.20
2023-02-24T20:38:11.841Z,10.21
2023-02-24T20:40:38.515Z,10.29
2023-02-24T20:43:05.518Z,10.30
2023-02-24T20:45:33.186Z,10.22
2023-02-24T20:48:00.481Z,9.95
2023-02-24T20:50:27.505Z,9.84
2023-02-24T20:52:54.720Z,9.81
2023-02-24T20:55:22.810Z,9.88
2023-02-24T20:57:49.981Z,10.08
2023-02-24T21:00:16.875Z,10.23
2023-02-24T21:02:43.693Z,10.24
2023-02-24T21:05:17.706Z,10.23
2023-02-24T21:07:44.341Z,10.18
2023-02-24T21:10:11.364Z,10.14
2023-02-24T21:12:37.973Z,10.07
2023-02-24T21:15:04.692Z,10.07
2023-02-24T21:17:34.245Z,10.06
2023-02-24T21:20:01.967Z,10.12
2023-02-24T21:22:31.888Z,9.97
2023-02-24T21:24:58.631Z,9.93
2023-02-24T21:27:26.079Z,9.93
2023-02-24T21:29:53.438Z,9.94
2023-02-24T21:32:20.166Z,9.94
2023-02-24T21:34:46.902Z,9.97
2023-02-24T21:37:13.756Z,10.06
2023-02-24T21:39:40.223Z,10.04
2023-02-24T21:42:07.471Z,10.06
2023-02-24T21:44:33.976Z,10.05
2023-02-24T21:47:00.896Z,9.98
2023-02-24T21:49:27.427Z,9.96
2023-02-24T21:51:55.380Z,9.95
2023-02-24T21:54:22.123Z,10.00
2023-02-24T21:56:48.922Z,10.05
2023-02-24T21:59:31.522Z,10.05
2023-02-24T22:01:58.963Z,10.11
2023-02-24T22:04:25.885Z,10.15
2023-02-24T22:06:52.510Z,10.16
2023-02-24T22:09:20.834Z,10.14
2023-02-24T22:11:48.164Z,10.11
2023-02-24T22:14:15.441Z,10.10
2023-02-24T22:16:42.176Z,10.11
2023-02-24T22:19:09.123Z,10.13
2023-02-24T22:21:35.648Z,10.12
2023-02-24T22:24:02.919Z,10.15
2023-02-24T22:26:30.687Z,10.24
2023-02-24T22:28:58.000Z,10.18
2023-02-24T22:31:26.417Z,10.12
2023-02-24T22:33:53.212Z,10.14
2023-02-24T22:36:21.212Z,10.15
2023-02-24T22:38:48.052Z,10.18
2023-02-24T22:41:16.175Z,10.12
2023-02-24T22:43:43.284Z,10.04
2023-02-24T22:46:30.031Z,10.03
2023-02-24T22:48:57.087Z,9.93
2023-02-24T22:51:24.128Z,9.93
2023-02-24T22:53:51.188Z,9.95
2023-02-24T22:56:20.289Z,9.95
2023-02-24T22:58:47.467Z,9.93
2023-02-24T23:01:15.723Z,9.95
2023-02-24T23:03:43.569Z,10.00
2023-02-24T23:06:13.505Z,9.95
2023-02-24T23:08:41.118Z,9.98
2023-02-24T23:11:12.802Z,9.68
2023-02-24T23:13:40.561Z,9.48
2023-02-24T23:16:09.647Z,9.38
2023-02-24T23:18:36.923Z,9.29
2023-02-24T23:21:08.429Z,9.42
2023-02-24T23:23:35.670Z,9.31
2023-02-24T23:26:02.471Z,9.15
2023-02-24T23:28:29.232Z,9.01
2023-02-24T23:30:58.753Z,8.86
2023-02-24T23:33:25.769Z,8.80
2023-02-24T23:35:52.341Z,8.81
2023-02-24T23:38:18.988Z,8.68
2023-02-24T23:40:50.640Z,8.60
2023-02-24T23:43:17.604Z,8.50
2023-02-24T23:45:44.428Z,8.63
2023-02-24T23:48:12.225Z,8.80
2023-02-24T23:50:39.260Z,8.81
2023-02-24T23:53:05.889Z,8.87
2023-02-24T23:55:35.717Z,8.89
2023-02-24T23:58:03.077Z,8.62
